sensor_id;sensor_type;location;lat;lon;timestamp;temperature;humidity
48728;DHT22;34527;45.618;5.130;2023-06-01T00:00:24;15.80;99.90
48728;DHT22;34527;45.618;5.130;2023-06-01T00:02:50;15.70;99.90
48728;DHT22;34527;45.618;5.130;2023-06-01T00:05:16;15.60;99.90
48728;DHT22;34527;45.618;5.130;2023-06-01T00:07:41;15.60;99.90
48728;DHT22;34527;45.618;5.130;2023-06-01T00:10:07;15.60;99.90
48728;DHT22;34527;45.618;5.130;2023-06-01T00:12:33;15.60;99.90
48728;DHT22;34527;45.618;5.130;2023-06-01T00:14:59;15.50;99.90
48728;DHT22;34527;45.618;5.130;2023-06-01T00:17:25;15.50;99.90
48728;DHT22;34527;45.618;5.130;2023-06-01T00:19:50;15.40;99.90
48728;DHT22;34527;45.618;5.130;2023-06-01T00:22:18;15.30;99.90
48728;DHT22;34527;45.618;5.130;2023-06-01T00:24:44;15.20;99.90
48728;DHT22;34527;45.618;5.130;2023-06-01T00:27:09;15.30;99.90
48728;DHT22;34527;45.618;5.130;2023-06-01T00:29:35;15.20;99.90
48728;DHT22;34527;45.618;5.130;2023-06-01T00:32:01;15.10;99.90
48728;DHT22;34527;45.618;5.130;2023-06-01T00:34:26;15.10;99.90
48728;DHT22;34527;45.618;5.130;2023-06-01T00:36:52;15.10;99.90
48728;DHT22;34527;45.618;5.130;2023-06-01T00:39:17;15.10;99.90
48728;DHT22;34527;45.618;5.130;2023-06-01T00:41:44;15.00;99.90
48728;DHT22;34527;45.618;5.130;2023-06-01T00:44:09;14.90;99.90
48728;DHT22;34527;45.618;5.130;2023-06-01T00:46:37;15.00;99.90
48728;DHT22;34527;45.618;5.130;2023-06-01T00:49:02;14.90;99.90
48728;DHT22;34527;45.618;5.130;2023-06-01T00:51:28;14.90;99.90
48728;DHT22;34527;45.618;5.130;2023-06-01T00:53:54;14.80;99.90
48728;DHT22;34527;45.618;5.130;2023-06-01T00:56:20;14.80;99.90
48728;DHT22;34527;45.618;5.130;2023-06-01T00:58:47;14.80;99.90
48728;DHT22;34527;45.618;5.130;2023-06-01T01:01:13;14.70;99.90
48728;DHT22;34527;45.618;5.130;2023-06-01T01:03:43;14.60;99.90
48728;DHT22;34527;45.618;5.130;2023-06-01T01:06:22;14.60;99.90
48728;DHT22;34527;45.618;5.130;2023-06-01T01:09:09;14.60;99.90
48728;DHT22;34527;45.618;5.130;2023-06-01T01:11:37;14.60;99.90
48728;DHT22;34527;45.618;5.130;2023-06-01T01:14:33;14.50;99.90
48728;DHT22;34527;45.618;5.130;2023-06-01T01:17:21;14.50;99.90
48728;DHT22;34527;45.618;5.130;2023-06-01T01:19:52;14.50;99.90
48728;DHT22;34527;45.618;5.130;2023-06-01T01:22:39;14.60;99.90
48728;DHT22;34527;45.618;5.130;2023-06-01T01:30:38;14.70;99.90
48728;DHT22;34527;45.618;5.130;2023-06-01T01:33:06;14.70;99.90
48728;DHT22;34527;45.618;5.130;2023-06-01T01:35:32;14.60;99.90
48728;DHT22;34527;45.618;5.130;2023-06-01T01:37:59;14.70;99.90
48728;DHT22;34527;45.618;5.130;2023-06-01T01:40:25;14.70;99.90
48728;DHT22;34527;45.618;5.130;2023-06-01T01:42:51;14.70;99.90
48728;DHT22;34527;45.618;5.130;2023-06-01T01:45:18;14.70;99.90
48728;DHT22;34527;45.618;5.130;2023-06-01T01:47:51;14.70;99.90
48728;DHT22;34527;45.618;5.130;2023-06-01T01:50:22;14.70;99.90
48728;DHT22;34527;45.618;5.130;2023-06-01T01:52:52;14.60;99.90
48728;DHT22;34527;45.618;5.130;2023-06-01T01:55:20;14.60;99.90
48728;DHT22;34527;45.618;5.130;2023-06-01T01:57:50;14.60;99.90
48728;DHT22;34527;45.618;5.130;2023-06-01T02:00:16;14.50;99.90
48728;DHT22;34527;45.618;5.130;2023-06-01T02:02:45;14.50;99.90
48728;DHT22;34527;45.618;5.130;2023-06-01T02:05:11;14.50;99.90
48728;DHT22;34527;45.618;5.130;2023-06-01T02:07:36;14.40;99.90
48728;DHT22;34527;45.618;5.130;2023-06-01T02:10:02;14.40;99.90
48728;DHT22;34527;45.618;5.130;2023-06-01T02:12:28;14.40;99.90
48728;DHT22;34527;45.618;5.130;2023-06-01T02:14:53;14.20;99.90
48728;DHT22;34527;45.618;5.130;2023-06-01T02:17:19;14.10;99.90
48728;DHT22;34527;45.618;5.130;2023-06-01T02:19:47;14.20;99.90
48728;DHT22;34527;45.618;5.130;2023-06-01T02:22:12;14.00;99.90
48728;DHT22;34527;45.618;5.130;2023-06-01T02:24:39;14.00;99.90
48728;DHT22;34527;45.618;5.130;2023-06-01T02:27:05;13.90;99.90
48728;DHT22;34527;45.618;5.130;2023-06-01T02:29:31;13.90;99.90
48728;DHT22;34527;45.618;5.130;2023-06-01T02:31:57;13.90;99.90
48728;DHT22;34527;45.618;5.130;2023-06-01T02:34:22;13.90;99.90
48728;DHT22;34527;45.618;5.130;2023-06-01T02:36:48;13.90;99.90
48728;DHT22;34527;45.618;5.130;2023-06-01T02:39:14;13.90;99.90
48728;DHT22;34527;45.618;5.130;2023-06-01T02:41:40;13.90;99.90
48728;DHT22;34527;45.618;5.130;2023-06-01T02:44:05;13.90;99.90
48728;DHT22;34527;45.618;5.130;2023-06-01T02:46:31;13.80;99.90
48728;DHT22;34527;45.618;5.130;2023-06-01T02:48:56;13.80;99.90
48728;DHT22;34527;45.618;5.130;2023-06-01T02:51:22;13.70;99.90
48728;DHT22;34527;45.618;5.130;2023-06-01T02:53:47;13.70;99.90
48728;DHT22;34527;45.618;5.130;2023-06-01T02:56:14;13.80;99.90
48728;DHT22;34527;45.618;5.130;2023-06-01T02:58:40;13.80;99.90
48728;DHT22;34527;45.618;5.130;2023-06-01T03:01:07;13.80;99.90
48728;DHT22;34527;45.618;5.130;2023-06-01T03:03:37;13.80;99.90
48728;DHT22;34527;45.618;5.130;2023-06-01T03:06:03;13.90;99.90
48728;DHT22;34527;45.618;5.130;2023-06-01T03:08:30;13.90;99.90
48728;DHT22;34527;45.618;5.130;2023-06-01T03:10:56;13.90;99.90
48728;DHT22;34527;45.618;5.130;2023-06-01T03:13:21;13.70;99.90
48728;DHT22;34527;45.618;5.130;2023-06-01T03:15:47;13.80;99.90
48728;DHT22;34527;45.618;5.130;2023-06-01T03:18:13;13.80;99.90
48728;DHT22;34527;45.618;5.130;2023-06-01T03:20:39;13.70;99.90
48728;DHT22;34527;45.618;5.130;2023-06-01T03:23:05;13.80;99.90
48728;DHT22;34527;45.618;5.130;2023-06-01T03:25:30;13.80;99.90
48728;DHT22;34527;45.618;5.130;2023-06-01T03:27:56;13.90;99.90
48728;DHT22;34527;45.618;5.130;2023-06-01T03:30:21;13.70;99.90
48728;DHT22;34527;45.618;5.130;2023-06-01T03:32:47;13.70;99.90
48728;DHT22;34527;45.618;5.130;2023-06-01T03:35:13;13.60;99.90
48728;DHT22;34527;45.618;5.130;2023-06-01T03:37:43;13.70;99.90
48728;DHT22;34527;45.618;5.130;2023-06-01T03:40:09;13.70;99.90
48728;DHT22;34527;45.618;5.130;2023-06-01T03:45:04;13.60;99.90
48728;DHT22;34527;45.618;5.130;2023-06-01T03:47:31;13.60;99.90
48728;DHT22;34527;45.618;5.130;2023-06-01T03:49:57;13.60;99.90
48728;DHT22;34527;45.618;5.130;2023-06-01T03:52:27;13.60;99.90
48728;DHT22;34527;45.618;5.130;2023-06-01T03:54:54;13.60;99.90
48728;DHT22;34527;45.618;5.130;2023-06-01T03:57:19;13.70;99.90
48728;DHT22;34527;45.618;5.130;2023-06-01T03:59:46;13.70;99.90
48728;DHT22;34527;45.618;5.130;2023-06-01T04:02:11;13.70;99.90
48728;DHT22;34527;45.618;5.130;2023-06-01T04:04:37;13.60;99.90
48728;DHT22;34527;45.618;5.130;2023-06-01T04:07:07;13.50;99.90
48728;DHT22;34527;45.618;5.130;2023-06-01T04:09:35;13.60;99.90
48728;DHT22;34527;45.618;5.130;2023-06-01T04:12:02;13.60;99.90
48728;DHT22;34527;45.618;5.130;2023-06-01T04:14:28;13.60;99.90
48728;DHT22;34527;45.618;5.130;2023-06-01T04:16:53;13.70;99.90
48728;DHT22;34527;45.618;5.130;2023-06-01T04:19:19;13.70;99.90
48728;DHT22;34527;45.618;5.130;2023-06-01T04:21:44;13.70;99.90
48728;DHT22;34527;45.618;5.130;2023-06-01T04:24:11;13.70;99.90
48728;DHT22;34527;45.618;5.130;2023-06-01T04:26:36;13.70;99.90
48728;DHT22;34527;45.618;5.130;2023-06-01T04:29:02;13.70;99.90
48728;DHT22;34527;45.618;5.130;2023-06-01T04:31:28;13.70;99.90
48728;DHT22;34527;45.618;5.130;2023-06-01T04:33:54;13.70;99.90
48728;DHT22;34527;45.618;5.130;2023-06-01T04:36:22;13.90;99.90
48728;DHT22;34527;45.618;5.130;2023-06-01T04:38:48;13.90;99.90
48728;DHT22;34527;45.618;5.130;2023-06-01T04:41:23;13.90;99.90
48728;DHT22;34527;45.618;5.130;2023-06-01T04:43:49;13.90;99.90
48728;DHT22;34527;45.618;5.130;2023-06-01T04:46:21;13.90;99.90
48728;DHT22;34527;45.618;5.130;2023-06-01T04:48:49;13.90;99.90
48728;DHT22;34527;45.618;5.130;2023-06-01T04:51:17;13.90;99.90
48728;DHT22;34527;45.618;5.130;2023-06-01T04:53:48;13.90;99.90
48728;DHT22;34527;45.618;5.130;2023-06-01T04:56:16;14.00;99.90
48728;DHT22;34527;45.618;5.130;2023-06-01T04:58:44;14.10;99.90
48728;DHT22;34527;45.618;5.130;2023-06-01T05:01:10;14.10;99.90
48728;DHT22;34527;45.618;5.130;2023-06-01T05:03:38;14.20;99.90
48728;DHT22;34527;45.618;5.130;2023-06-01T05:06:04;14.20;99.90
48728;DHT22;34527;45.618;5.130;2023-06-01T05:08:30;14.30;99.90
48728;DHT22;34527;45.618;5.130;2023-06-01T05:10:56;14.40;99.90
48728;DHT22;34527;45.618;5.130;2023-06-01T05:13:22;14.50;99.90
48728;DHT22;34527;45.618;5.130;2023-06-01T05:15:47;14.40;99.90
48728;DHT22;34527;45.618;5.130;2023-06-01T05:18:13;14.50;99.90
48728;DHT22;34527;45.618;5.130;2023-06-01T05:20:38;14.60;99.90
48728;DHT22;34527;45.618;5.130;2023-06-01T05:23:04;14.60;99.90
48728;DHT22;34527;45.618;5.130;2023-06-01T05:25:29;14.80;99.90
48728;DHT22;34527;45.618;5.130;2023-06-01T05:27:55;14.90;99.90
48728;DHT22;34527;45.618;5.130;2023-06-01T05:30:21;15.00;99.90
48728;DHT22;34527;45.618;5.130;2023-06-01T05:32:46;15.10;99.90
48728;DHT22;34527;45.618;5.130;2023-06-01T05:35:12;15.20;99.90
48728;DHT22;34527;45.618;5.130;2023-06-01T05:37:38;15.30;99.90
48728;DHT22;34527;45.618;5.130;2023-06-01T05:40:04;15.30;99.90
48728;DHT22;34527;45.618;5.130;2023-06-01T05:42:32;15.30;99.90
48728;DHT22;34527;45.618;5.130;2023-06-01T05:44:58;15.30;99.90
48728;DHT22;34527;45.618;5.130;2023-06-01T05:47:23;15.50;99.90
48728;DHT22;34527;45.618;5.130;2023-06-01T05:49:49;15.60;99.90
48728;DHT22;34527;45.618;5.130;2023-06-01T05:52:14;15.70;99.90
48728;DHT22;34527;45.618;5.130;2023-06-01T05:54:40;15.80;99.90
48728;DHT22;34527;45.618;5.130;2023-06-01T05:57:06;15.90;99.90
48728;DHT22;34527;45.618;5.130;2023-06-01T05:59:32;16.00;99.90
48728;DHT22;34527;45.618;5.130;2023-06-01T06:01:57;16.10;99.90
48728;DHT22;34527;45.618;5.130;2023-06-01T06:04:23;16.20;99.90
48728;DHT22;34527;45.618;5.130;2023-06-01T06:06:49;16.30;99.90
48728;DHT22;34527;45.618;5.130;2023-06-01T06:09:14;16.40;99.90
48728;DHT22;34527;45.618;5.130;2023-06-01T06:11:41;16.50;99.90
48728;DHT22;34527;45.618;5.130;2023-06-01T06:14:06;16.60;99.90
48728;DHT22;34527;45.618;5.130;2023-06-01T06:16:32;16.70;99.90
48728;DHT22;34527;45.618;5.130;2023-06-01T06:18:58;16.80;99.90
48728;DHT22;34527;45.618;5.130;2023-06-01T06:21:23;16.90;99.90
48728;DHT22;34527;45.618;5.130;2023-06-01T06:23:49;16.90;99.90
48728;DHT22;34527;45.618;5.130;2023-06-01T06:26:15;16.90;99.90
48728;DHT22;34527;45.618;5.130;2023-06-01T06:28:40;17.00;99.90
48728;DHT22;34527;45.618;5.130;2023-06-01T06:31:06;17.10;99.90
48728;DHT22;34527;45.618;5.130;2023-06-01T06:33:31;17.30;99.90
48728;DHT22;34527;45.618;5.130;2023-06-01T06:35:57;17.30;99.90
48728;DHT22;34527;45.618;5.130;2023-06-01T06:38:23;17.40;99.90
48728;DHT22;34527;45.618;5.130;2023-06-01T06:40:48;17.40;99.90
48728;DHT22;34527;45.618;5.130;2023-06-01T06:43:14;17.50;99.90
48728;DHT22;34527;45.618;5.130;2023-06-01T06:45:41;17.60;99.90
48728;DHT22;34527;45.618;5.130;2023-06-01T06:48:06;17.70;99.90
48728;DHT22;34527;45.618;5.130;2023-06-01T06:50:32;17.90;99.90
48728;DHT22;34527;45.618;5.130;2023-06-01T06:52:58;17.90;99.90
48728;DHT22;34527;45.618;5.130;2023-06-01T06:55:24;17.90;99.90
48728;DHT22;34527;45.618;5.130;2023-06-01T06:57:50;18.20;99.90
48728;DHT22;34527;45.618;5.130;2023-06-01T07:00:16;18.30;99.90
48728;DHT22;34527;45.618;5.130;2023-06-01T07:02:42;18.40;99.90
48728;DHT22;34527;45.618;5.130;2023-06-01T07:05:10;18.40;99.90
48728;DHT22;34527;45.618;5.130;2023-06-01T07:07:36;18.40;99.90
48728;DHT22;34527;45.618;5.130;2023-06-01T07:10:02;18.60;99.90
48728;DHT22;34527;45.618;5.130;2023-06-01T07:12:29;18.80;99.90
48728;DHT22;34527;45.618;5.130;2023-06-01T07:14:55;18.90;99.90
48728;DHT22;34527;45.618;5.130;2023-06-01T07:17:21;18.90;99.90
48728;DHT22;34527;45.618;5.130;2023-06-01T07:19:46;19.00;99.90
48728;DHT22;34527;45.618;5.130;2023-06-01T07:22:12;19.00;99.90
48728;DHT22;34527;45.618;5.130;2023-06-01T07:24:37;18.90;99.90
48728;DHT22;34527;45.618;5.130;2023-06-01T07:27:03;19.00;99.90
48728;DHT22;34527;45.618;5.130;2023-06-01T07:29:30;19.20;99.90
48728;DHT22;34527;45.618;5.130;2023-06-01T07:31:56;19.20;99.90
48728;DHT22;34527;45.618;5.130;2023-06-01T07:34:21;19.30;99.90
48728;DHT22;34527;45.618;5.130;2023-06-01T07:36:48;19.30;99.90
48728;DHT22;34527;45.618;5.130;2023-06-01T07:39:14;19.30;99.90
48728;DHT22;34527;45.618;5.130;2023-06-01T07:41:40;19.30;99.90
48728;DHT22;34527;45.618;5.130;2023-06-01T07:44:06;19.20;99.90
48728;DHT22;34527;45.618;5.130;2023-06-01T07:46:33;19.30;99.90
48728;DHT22;34527;45.618;5.130;2023-06-01T07:48:58;19.40;99.90
48728;DHT22;34527;45.618;5.130;2023-06-01T07:51:24;19.60;99.90
48728;DHT22;34527;45.618;5.130;2023-06-01T07:53:50;19.80;99.90
48728;DHT22;34527;45.618;5.130;2023-06-01T07:56:15;19.80;99.90
48728;DHT22;34527;45.618;5.130;2023-06-01T07:58:41;19.70;99.90
48728;DHT22;34527;45.618;5.130;2023-06-01T08:01:07;19.70;99.90
48728;DHT22;34527;45.618;5.130;2023-06-01T08:03:33;20.00;99.90
48728;DHT22;34527;45.618;5.130;2023-06-01T08:05:59;20.00;99.90
48728;DHT22;34527;45.618;5.130;2023-06-01T08:08:28;20.20;99.90
48728;DHT22;34527;45.618;5.130;2023-06-01T08:10:53;20.20;99.90
48728;DHT22;34527;45.618;5.130;2023-06-01T08:13:19;20.20;99.90
48728;DHT22;34527;45.618;5.130;2023-06-01T08:15:45;20.20;99.90
48728;DHT22;34527;45.618;5.130;2023-06-01T08:18:13;20.30;99.90
48728;DHT22;34527;45.618;5.130;2023-06-01T08:20:39;20.40;99.90
48728;DHT22;34527;45.618;5.130;2023-06-01T08:23:05;20.60;99.90
48728;DHT22;34527;45.618;5.130;2023-06-01T08:25:31;20.60;99.90
48728;DHT22;34527;45.618;5.130;2023-06-01T08:27:56;20.80;99.90
48728;DHT22;34527;45.618;5.130;2023-06-01T08:30:24;21.00;99.90
48728;DHT22;34527;45.618;5.130;2023-06-01T08:32:50;21.10;99.90
48728;DHT22;34527;45.618;5.130;2023-06-01T08:35:16;20.90;99.90
48728;DHT22;34527;45.618;5.130;2023-06-01T08:37:41;21.10;99.90
48728;DHT22;34527;45.618;5.130;2023-06-01T08:40:07;21.30;99.90
48728;DHT22;34527;45.618;5.130;2023-06-01T08:45:12;21.60;99.90
48728;DHT22;34527;45.618;5.130;2023-06-01T08:47:40;21.50;99.90
48728;DHT22;34527;45.618;5.130;2023-06-01T08:50:08;21.40;99.90
48728;DHT22;34527;45.618;5.130;2023-06-01T08:52:34;21.70;99.90
48728;DHT22;34527;45.618;5.130;2023-06-01T08:55:02;21.70;99.90
48728;DHT22;34527;45.618;5.130;2023-06-01T08:57:28;22.00;99.90
48728;DHT22;34527;45.618;5.130;2023-06-01T08:59:58;21.90;99.90
48728;DHT22;34527;45.618;5.130;2023-06-01T09:02:24;21.60;99.90
48728;DHT22;34527;45.618;5.130;2023-06-01T09:04:51;21.60;99.90
48728;DHT22;34527;45.618;5.130;2023-06-01T09:07:17;21.70;99.90
48728;DHT22;34527;45.618;5.130;2023-06-01T09:09:43;21.80;99.90
48728;DHT22;34527;45.618;5.130;2023-06-01T09:12:24;21.80;99.90
48728;DHT22;34527;45.618;5.130;2023-06-01T09:15:04;22.10;99.90
48728;DHT22;34527;45.618;5.130;2023-06-01T09:17:31;22.30;99.90
48728;DHT22;34527;45.618;5.130;2023-06-01T09:19:57;22.30;99.90
48728;DHT22;34527;45.618;5.130;2023-06-01T09:22:23;22.40;99.90
48728;DHT22;34527;45.618;5.130;2023-06-01T09:24:59;22.30;99.90
48728;DHT22;34527;45.618;5.130;2023-06-01T09:27:25;22.30;99.90
48728;DHT22;34527;45.618;5.130;2023-06-01T09:29:55;22.40;99.90
48728;DHT22;34527;45.618;5.130;2023-06-01T09:32:21;22.30;99.90
48728;DHT22;34527;45.618;5.130;2023-06-01T09:34:47;22.70;99.90
48728;DHT22;34527;45.618;5.130;2023-06-01T09:37:13;22.80;99.90
48728;DHT22;34527;45.618;5.130;2023-06-01T09:39:39;22.90;99.90
48728;DHT22;34527;45.618;5.130;2023-06-01T09:42:06;22.90;99.90
48728;DHT22;34527;45.618;5.130;2023-06-01T09:44:34;23.00;99.90
48728;DHT22;34527;45.618;5.130;2023-06-01T09:47:05;23.10;99.90
48728;DHT22;34527;45.618;5.130;2023-06-01T09:49:33;23.00;99.90
48728;DHT22;34527;45.618;5.130;2023-06-01T09:54:33;23.40;99.90
48728;DHT22;34527;45.618;5.130;2023-06-01T09:57:01;23.40;99.90
48728;DHT22;34527;45.618;5.130;2023-06-01T09:59:28;23.50;99.90
48728;DHT22;34527;45.618;5.130;2023-06-01T10:01:56;23.60;99.90
48728;DHT22;34527;45.618;5.130;2023-06-01T10:04:24;23.60;99.90
48728;DHT22;34527;45.618;5.130;2023-06-01T10:06:52;23.70;99.90
48728;DHT22;34527;45.618;5.130;2023-06-01T10:09:20;23.80;99.90
48728;DHT22;34527;45.618;5.130;2023-06-01T10:11:48;23.90;99.90
48728;DHT22;34527;45.618;5.130;2023-06-01T10:14:14;23.90;99.90
48728;DHT22;34527;45.618;5.130;2023-06-01T10:16:41;24.00;99.90
48728;DHT22;34527;45.618;5.130;2023-06-01T10:19:07;23.90;99.90
48728;DHT22;34527;45.618;5.130;2023-06-01T10:21:34;23.70;99.90
48728;DHT22;34527;45.618;5.130;2023-06-01T10:24:01;23.90;99.90
48728;DHT22;34527;45.618;5.130;2023-06-01T10:26:28;24.10;99.90
48728;DHT22;34527;45.618;5.130;2023-06-01T10:28:56;24.20;99.90
48728;DHT22;34527;45.618;5.130;2023-06-01T10:31:36;24.20;99.90
48728;DHT22;34527;45.618;5.130;2023-06-01T10:34:02;24.10;99.90
48728;DHT22;34527;45.618;5.130;2023-06-01T10:39:31;24.20;99.90
48728;DHT22;34527;45.618;5.130;2023-06-01T10:52:30;24.60;99.90
48728;DHT22;34527;45.618;5.130;2023-06-01T10:55:19;24.40;99.90
48728;DHT22;34527;45.618;5.130;2023-06-01T10:57:46;24.50;99.90
48728;DHT22;34527;45.618;5.130;2023-06-01T11:13:16;24.40;99.90
48728;DHT22;34527;45.618;5.130;2023-06-01T11:21:08;24.60;99.90
48728;DHT22;34527;45.618;5.130;2023-06-01T11:23:34;24.60;99.90
48728;DHT22;34527;45.618;5.130;2023-06-01T11:26:05;24.80;99.90
48728;DHT22;34527;45.618;5.130;2023-06-01T11:28:31;24.90;99.90
48728;DHT22;34527;45.618;5.130;2023-06-01T11:30:59;24.90;99.90
48728;DHT22;34527;45.618;5.130;2023-06-01T11:33:28;25.10;99.90
48728;DHT22;34527;45.618;5.130;2023-06-01T11:36:00;25.00;99.90
48728;DHT22;34527;45.618;5.130;2023-06-01T11:38:41;24.90;99.90
48728;DHT22;34527;45.618;5.130;2023-06-01T11:41:08;24.80;99.90
48728;DHT22;34527;45.618;5.130;2023-06-01T11:43:34;25.00;99.90
48728;DHT22;34527;45.618;5.130;2023-06-01T11:46:05;25.10;99.90
48728;DHT22;34527;45.618;5.130;2023-06-01T11:48:32;25.10;99.90
48728;DHT22;34527;45.618;5.130;2023-06-01T11:51:00;25.20;99.90
48728;DHT22;34527;45.618;5.130;2023-06-01T11:53:26;25.00;99.90
48728;DHT22;34527;45.618;5.130;2023-06-01T11:55:54;25.10;99.90
48728;DHT22;34527;45.618;5.130;2023-06-01T11:58:37;25.20;99.90
48728;DHT22;34527;45.618;5.130;2023-06-01T12:01:03;25.50;99.90
48728;DHT22;34527;45.618;5.130;2023-06-01T12:03:29;25.40;99.90
48728;DHT22;34527;45.618;5.130;2023-06-01T12:05:57;25.30;99.90
48728;DHT22;34527;45.618;5.130;2023-06-01T12:08:24;25.40;99.90
48728;DHT22;34527;45.618;5.130;2023-06-01T12:10:51;25.50;99.90
48728;DHT22;34527;45.618;5.130;2023-06-01T12:13:19;25.20;99.90
48728;DHT22;34527;45.618;5.130;2023-06-01T12:15:45;25.10;99.90
48728;DHT22;34527;45.618;5.130;2023-06-01T12:18:12;25.20;99.90
48728;DHT22;34527;45.618;5.130;2023-06-01T12:20:42;25.20;99.90
48728;DHT22;34527;45.618;5.130;2023-06-01T12:23:17;25.20;99.90
48728;DHT22;34527;45.618;5.130;2023-06-01T12:25:57;25.20;99.90
48728;DHT22;34527;45.618;5.130;2023-06-01T12:28:26;25.40;99.90
48728;DHT22;34527;45.618;5.130;2023-06-01T12:31:14;25.30;99.90
48728;DHT22;34527;45.618;5.130;2023-06-01T12:33:41;25.40;99.90
48728;DHT22;34527;45.618;5.130;2023-06-01T12:36:10;25.50;99.90
48728;DHT22;34527;45.618;5.130;2023-06-01T12:38:52;25.40;99.90
48728;DHT22;34527;45.618;5.130;2023-06-01T12:41:18;25.50;99.90
48728;DHT22;34527;45.618;5.130;2023-06-01T12:43:45;25.70;99.90
48728;DHT22;34527;45.618;5.130;2023-06-01T12:46:21;25.70;99.90
48728;DHT22;34527;45.618;5.130;2023-06-01T12:48:47;25.80;99.90
48728;DHT22;34527;45.618;5.130;2023-06-01T12:51:13;25.80;99.90
48728;DHT22;34527;45.618;5.130;2023-06-01T12:53:40;25.70;99.90
48728;DHT22;34527;45.618;5.130;2023-06-01T12:56:07;25.70;99.90
48728;DHT22;34527;45.618;5.130;2023-06-01T12:58:33;25.80;99.90
48728;DHT22;34527;45.618;5.130;2023-06-01T13:00:59;25.70;99.90
48728;DHT22;34527;45.618;5.130;2023-06-01T13:03:24;26.00;99.90
48728;DHT22;34527;45.618;5.130;2023-06-01T13:05:50;25.90;99.90
48728;DHT22;34527;45.618;5.130;2023-06-01T13:08:16;25.70;99.90
48728;DHT22;34527;45.618;5.130;2023-06-01T13:10:43;25.60;99.90
48728;DHT22;34527;45.618;5.130;2023-06-01T13:13:09;25.60;99.90
48728;DHT22;34527;45.618;5.130;2023-06-01T13:15:39;25.60;99.90
48728;DHT22;34527;45.618;5.130;2023-06-01T13:18:05;25.80;99.90
48728;DHT22;34527;45.618;5.130;2023-06-01T13:20:31;25.90;99.90
48728;DHT22;34527;45.618;5.130;2023-06-01T13:22:56;25.70;99.90
48728;DHT22;34527;45.618;5.130;2023-06-01T13:25:22;25.90;99.90
48728;DHT22;34527;45.618;5.130;2023-06-01T13:27:49;26.00;99.90
48728;DHT22;34527;45.618;5.130;2023-06-01T13:30:14;26.00;99.90
48728;DHT22;34527;45.618;5.130;2023-06-01T13:32:40;25.80;99.90
48728;DHT22;34527;45.618;5.130;2023-06-01T13:35:06;25.70;99.90
48728;DHT22;34527;45.618;5.130;2023-06-01T13:37:32;25.70;99.90
48728;DHT22;34527;45.618;5.130;2023-06-01T13:39:57;25.70;99.90
48728;DHT22;34527;45.618;5.130;2023-06-01T13:42:23;25.80;99.90
48728;DHT22;34527;45.618;5.130;2023-06-01T13:44:49;25.90;99.90
48728;DHT22;34527;45.618;5.130;2023-06-01T13:47:16;25.90;99.90
48728;DHT22;34527;45.618;5.130;2023-06-01T13:49:42;25.80;99.90
48728;DHT22;34527;45.618;5.130;2023-06-01T13:52:09;25.70;99.90
48728;DHT22;34527;45.618;5.130;2023-06-01T13:54:35;25.80;99.90
48728;DHT22;34527;45.618;5.130;2023-06-01T13:57:01;25.70;99.90
48728;DHT22;34527;45.618;5.130;2023-06-01T13:59:31;25.70;99.90
48728;DHT22;34527;45.618;5.130;2023-06-01T14:01:59;25.70;99.90
48728;DHT22;34527;45.618;5.130;2023-06-01T14:04:24;25.70;99.90
48728;DHT22;34527;45.618;5.130;2023-06-01T14:06:50;25.90;99.90
48728;DHT22;34527;45.618;5.130;2023-06-01T14:09:17;26.10;99.90
48728;DHT22;34527;45.618;5.130;2023-06-01T14:11:42;25.70;99.90
48728;DHT22;34527;45.618;5.130;2023-06-01T14:14:08;25.70;99.90
48728;DHT22;34527;45.618;5.130;2023-06-01T14:16:34;25.60;99.90
48728;DHT22;34527;45.618;5.130;2023-06-01T14:18:59;25.70;99.90
48728;DHT22;34527;45.618;5.130;2023-06-01T14:21:25;25.70;99.90
48728;DHT22;34527;45.618;5.130;2023-06-01T14:23:51;25.70;99.90
48728;DHT22;34527;45.618;5.130;2023-06-01T14:26:17;25.70;99.90
48728;DHT22;34527;45.618;5.130;2023-06-01T14:28:43;25.50;99.90
48728;DHT22;34527;45.618;5.130;2023-06-01T14:31:08;25.20;99.90
48728;DHT22;34527;45.618;5.130;2023-06-01T14:33:34;25.40;99.90
48728;DHT22;34527;45.618;5.130;2023-06-01T14:36:00;25.50;99.90
48728;DHT22;34527;45.618;5.130;2023-06-01T14:38:25;25.50;99.90
48728;DHT22;34527;45.618;5.130;2023-06-01T14:40:51;25.40;99.90
48728;DHT22;34527;45.618;5.130;2023-06-01T14:43:17;25.20;99.90
48728;DHT22;34527;45.618;5.130;2023-06-01T14:45:42;25.50;99.90
48728;DHT22;34527;45.618;5.130;2023-06-01T14:48:09;25.40;99.90
48728;DHT22;34527;45.618;5.130;2023-06-01T14:50:34;25.50;99.90
48728;DHT22;34527;45.618;5.130;2023-06-01T14:53:00;25.50;99.90
48728;DHT22;34527;45.618;5.130;2023-06-01T14:55:26;25.50;99.90
48728;DHT22;34527;45.618;5.130;2023-06-01T14:57:52;25.40;99.90
48728;DHT22;34527;45.618;5.130;2023-06-01T15:00:19;25.50;99.90
48728;DHT22;34527;45.618;5.130;2023-06-01T15:02:45;25.70;99.90
48728;DHT22;34527;45.618;5.130;2023-06-01T15:05:13;25.60;99.90
48728;DHT22;34527;45.618;5.130;2023-06-01T15:07:39;25.70;99.90
48728;DHT22;34527;45.618;5.130;2023-06-01T15:10:05;25.70;99.90
48728;DHT22;34527;45.618;5.130;2023-06-01T15:12:31;25.60;99.90
48728;DHT22;34527;45.618;5.130;2023-06-01T15:14:56;25.60;99.90
48728;DHT22;34527;45.618;5.130;2023-06-01T15:17:22;25.70;99.90
48728;DHT22;34527;45.618;5.130;2023-06-01T15:19:48;25.60;99.90
48728;DHT22;34527;45.618;5.130;2023-06-01T15:22:14;25.60;99.90
48728;DHT22;34527;45.618;5.130;2023-06-01T15:24:40;25.60;99.90
48728;DHT22;34527;45.618;5.130;2023-06-01T15:27:06;25.60;99.90
48728;DHT22;34527;45.618;5.130;2023-06-01T15:29:32;25.60;99.90
48728;DHT22;34527;45.618;5.130;2023-06-01T15:31:58;25.50;99.90
48728;DHT22;34527;45.618;5.130;2023-06-01T15:34:24;25.50;99.90
48728;DHT22;34527;45.618;5.130;2023-06-01T15:36:49;25.50;99.90
48728;DHT22;34527;45.618;5.130;2023-06-01T15:39:15;25.50;99.90
48728;DHT22;34527;45.618;5.130;2023-06-01T15:41:41;25.50;99.90
48728;DHT22;34527;45.618;5.130;2023-06-01T15:44:07;25.60;99.90
48728;DHT22;34527;45.618;5.130;2023-06-01T15:46:33;25.50;99.90
48728;DHT22;34527;45.618;5.130;2023-06-01T15:48:58;25.50;99.90
48728;DHT22;34527;45.618;5.130;2023-06-01T15:51:24;25.50;99.90
48728;DHT22;34527;45.618;5.130;2023-06-01T15:53:50;25.60;99.90
48728;DHT22;34527;45.618;5.130;2023-06-01T15:56:16;25.60;99.90
48728;DHT22;34527;45.618;5.130;2023-06-01T15:58:42;25.60;99.90
48728;DHT22;34527;45.618;5.130;2023-06-01T16:01:08;25.70;99.90
48728;DHT22;34527;45.618;5.130;2023-06-01T16:03:34;25.90;99.90
48728;DHT22;34527;45.618;5.130;2023-06-01T16:06:00;25.80;99.90
48728;DHT22;34527;45.618;5.130;2023-06-01T16:08:26;25.70;99.90
48728;DHT22;34527;45.618;5.130;2023-06-01T16:10:51;25.70;99.90
48728;DHT22;34527;45.618;5.130;2023-06-01T16:13:17;25.60;99.90